Weather observations for the past three days for
York, York Municipal Airport
Imperial (Metric)
Date Time (cdt) Wind (mph) Vis. (mi.) Weather Sky Cond. Temperature (ºF) Relative Humidity Wind Chill (°F) Heat Index (°F) Pressure Precipitation (in)
Air Dwpt 6 hour altimeter (in) sea level (mb) 1 hr 3 hr 6 hr
Max. Min.
02 23:35 S 12 10.00 NULL NULL 80.6 68 66% 83 29.84 0.0
02 23:15 S 13 G 20 10.00 NULL NULL 80.6 68 66% 83 29.83 0.0
02 22:55 S 14 G 21 10.00 NULL NULL 82.4 68 62% 85 29.83 0.0
02 22:35 S 13 G 21 10.00 Fair CLR 82.4 68 62% 85 29.83 0.0
02 22:15 S 13 10.00 Fair CLR 82.4 68 62% 85 29.83 0.0
02 21:55 S 12 10.00 NULL NULL 82.4 68 62% 85 29.83 0.0
02 21:35 S 12 9.00 Light Rain NULL 82.4 69.8 66% 86 29.83 0.0
02 21:15 S 14 10.00 NULL NULL 82.4 69.8 66% 86 29.82 0.0
02 20:55 SE 12 10.00 NULL NULL 84.2 69.8 62% 88 29.81 0.0
02 20:35 SE 12 10.00 NULL NULL 84.2 71.6 66% 90 29.81 0.0
02 20:15 SE 10 10.00 Fair CLR 84.2 71.6 66% 90 29.8 0.0
02 19:55 SE 9 10.00 Fair CLR 86 71.6 62% 92 29.8 0.0
02 19:35 SE 9 10.00 Fair CLR 87.8 71.6 59% 94 29.8 0.0
02 19:15 SE 9 10.00 Fair CLR 89.6 73.4 59% 98 29.8 0.0
02 18:55 SE 9 10.00 Fair CLR 91.4 73.4 56% 100 29.8 0.0
02 18:35 SE 8 10.00 Fair CLR 91.4 73.4 56% 100 29.8 0.0
02 18:15 SE 8 10.00 Fair CLR 93.2 73.4 53% 103 29.81 0.0
02 17:55 SE 8 10.00 Fair CLR 93.2 73.4 53% 103 29.81 0.0
02 17:35 S 9 10.00 Fair CLR 95 71.6 47% 103 29.82 0.0
02 17:15 S 10 10.00 Fair CLR 95 73.4 50% 105 29.82 0.0
02 16:55 S 10 10.00 Fair CLR 95 71.6 47% 103 29.83 0.0
02 16:35 S 12 10.00 Fair CLR 95 71.6 47% 103 29.83 0.0
02 16:15 S 10 10.00 Fair CLR 95 71.6 47% 103 29.84 0.0
02 15:55 S 10 10.00 Fair CLR 93.2 73.4 53% 103 29.85 0.0
02 15:35 S 13 10.00 Fair CLR 93.2 73.4 53% 103 29.86 0.0
02 15:15 S 13 10.00 Fair CLR 93.2 73.4 53% 103 29.86 0.0
02 14:55 S 12 10.00 Fair CLR 91.4 71.6 52% 99 29.87 0.0
02 14:35 S 15 10.00 Fair CLR 91.4 69.8 49% 97 29.87 0.0
02 14:15 S 13 10.00 Fair CLR 91.4 71.6 52% 99 29.88 0.0
02 13:55 S 12 10.00 Fair CLR 91.4 71.6 52% 99 29.88 0.0
02 13:35 S 12 10.00 Fair CLR 89.6 71.6 55% 96 29.89 0.0
02 13:15 S 12 10.00 Fair CLR 89.6 71.6 55% 96 29.89 0.0
02 12:55 S 13 10.00 Fair CLR 89.6 71.6 55% 96 29.89 0.0
02 12:35 S 10 10.00 Fair CLR 87.8 71.6 59% 94 29.9 0.0
02 12:15 SW 15 10.00 Fair CLR 87.8 69.8 55% 93 29.9 0.0
02 11:55 S 12 10.00 Fair CLR 86 69.8 59% 91 29.9 0.0
02 11:35 SW 12 10.00 Fair CLR 86 69.8 59% 91 29.9 0.0
02 11:15 S 10 10.00 Fair CLR 84.2 69.8 62% 88 29.9 0.0
02 10:55 SW 12 10.00 Fair CLR 84.2 69.8 62% 88 29.9 0.0
02 10:35 S 9 10.00 Fair CLR 80.6 69.8 70% 84 29.9 0.0
02 10:15 SW 9 10.00 Fair CLR 78.8 68 70% 81 29.91 0.0
02 09:55 S 7 10.00 Fair CLR 78.8 69.8 74% 81 29.9 0.0
02 09:35 SW 9 10.00 Fair CLR 78.8 68 70% 81 29.91 0.0
02 09:15 SW 9 10.00 Fair CLR 77 66.2 69% 79 29.91 0.0
02 08:55 SW 10 10.00 Fair CLR 75.2 66.2 74% 77 29.91 0.0
02 08:35 SW 9 10.00 Fair CLR 75.2 66.2 74% 77 29.91 0.0
02 08:15 S 8 10.00 Fair CLR 73.4 66.2 78% 29.91 0.0
02 07:55 S 7 10.00 A Few Clouds FEW120 71.6 66.2 83% 29.91 0.0
02 07:35 S 6 10.00 A Few Clouds FEW120 71.6 66.2 83% 29.91 0.0
02 07:15 S 6 10.00 NULL NULL 69.8 64.4 83% 29.9 0.0
02 06:55 S 8 10.00 NULL NULL 71.6 64.4 78% 29.9 0.0
02 06:35 S 9 10.00 NULL NULL 71.6 64.4 78% 29.89 0.0
02 06:15 S 8 10.00 NULL NULL 71.6 64.4 78% 29.89 0.0
02 05:55 S 9 10.00 NULL NULL 71.6 64.4 78% 29.89 0.0
02 05:35 S 10 10.00 NULL NULL 71.6 64.4 78% 29.89 0.0
02 05:15 S 10 10.00 NULL NULL 73.4 64.4 74% 29.89 0.0
02 04:55 S 10 10.00 NULL NULL 71.6 64.4 78% 29.89 0.0
02 04:35 S 9 10.00 NULL NULL 71.6 64.4 78% 29.89 0.0
02 04:15 S 7 10.00 Fair CLR 71.6 66.2 83% 29.89 0.0
02 03:55 S 8 10.00 Fair CLR 73.4 64.4 74% 29.89 0.0
02 03:35 S 9 10.00 NULL NULL 73.4 64.4 74% 29.89 0.0
02 03:15 S 8 10.00 NULL NULL 73.4 66.2 78% 29.89 0.0
02 02:55 S 9 10.00 NULL NULL 73.4 64.4 74% 29.89 0.0
02 02:35 S 10 10.00 NULL NULL 75.2 64.4 69% 77 29.89 0.0
02 02:15 S 9 10.00 NULL NULL 75.2 64.4 69% 77 29.9 0.0
02 01:55 S 10 10.00 NULL NULL 75.2 66.2 74% 77 29.9 0.0
02 01:35 S 10 10.00 NULL NULL 75.2 66.2 74% 77 29.89 0.0
02 01:15 S 10 10.00 NULL NULL 75.2 66.2 74% 77 29.89 0.0
02 00:55 S 10 10.00 NULL NULL 75.2 66.2 74% 77 29.89 0.0
02 00:35 S 10 10.00 NULL NULL 75.2 68 78% 76 29.89 0.0
02 00:15 S 8 10.00 Fair CLR 75.2 68 78% 76 29.89 0.0
01 23:55 S 9 10.00 NULL NULL 75.2 68 78% 76 29.88 0.0
01 23:35 S 8 10.00 NULL NULL 75.2 69.8 83% 75 29.88 0.0
01 23:15 S 8 10.00 NULL NULL 75.2 69.8 83% 75 29.89 0.0
01 22:55 S 7 10.00 NULL NULL 77 71.6 83% 78 29.89 0.0
01 22:35 S 7 10.00 NULL NULL 77 71.6 83% 78 29.89 0.0
01 22:15 S 7 10.00 NULL NULL 78.8 71.6 79% 82 29.89 0.0
01 21:55 S 6 10.00 NULL NULL 82.4 73.4 74% 88 29.88 0.0
01 21:35 S 6 10.00 NULL NULL 82.4 75.2 79% 89 29.87 0.0
01 21:15 S 7 10.00 NULL NULL 84.2 77 79% 94 29.87 0.0
01 20:55 SE 3 9.00 NULL NULL 80.6 80.6 100% 89 29.87 0.0
01 20:35 E 5 5.00 Fog/Mist NULL 82.4 78.8 89% 92 29.85 0.0
01 20:15 NE 5 8.00 Fair CLR 82.4 80.6 94% 94 29.85 0.0
01 19:55 Calm 9.00 Fair CLR 84.2 80.6 89% 98 29.85 0.0
01 19:35 Calm 10.00 Fair CLR 86 80.6 84% 102 29.85 0.0
01 19:15 NE 6 10.00 Fair CLR 86 82.4 89% 105 29.85 0.0
01 18:55 Calm 10.00 Fair CLR 87.8 82.4 84% 108 29.85 0.0
01 18:35 Calm 10.00 Fair CLR 89.6 80.6 75% 108 29.86 0.0
01 18:15 Calm 9.00 Fair CLR 91.4 78.8 67% 108 29.86 0.0
01 17:55 Calm 10.00 Fair CLR 91.4 77 63% 105 29.87 0.0
01 17:35 W 5 10.00 Fair CLR 91.4 78.8 67% 108 29.88 0.0
01 17:15 SW 3 10.00 Fair CLR 91.4 78.8 67% 108 29.88 0.0
01 16:55 SW 6 10.00 Fair CLR 91.4 77 63% 105 29.88 0.0
01 16:35 S 7 10.00 Fair CLR 91.4 77 63% 105 29.89 0.0
01 16:15 S 5 G 12 10.00 Fair CLR 89.6 75.2 63% 100 29.9 0.0
01 15:55 S 8 10.00 Fair CLR 89.6 75.2 63% 100 29.9 0.0
01 15:35 S 10 10.00 Fair CLR 89.6 75.2 63% 100 29.91 0.0
01 15:15 S 7 10.00 Fair CLR 89.6 75.2 63% 100 29.92 0.0
01 14:55 S 9 10.00 Fair CLR 87.8 75.2 66% 98 29.92 0.0
01 14:35 S 9 10.00 Fair CLR 87.8 75.2 66% 98 29.93 0.0
01 14:15 S 8 10.00 Fair CLR 87.8 75.2 66% 98 29.92 0.0
01 13:55 SE 7 10.00 Fair CLR 87.8 75.2 66% 98 29.93 0.0
01 13:35 S 7 G 14 10.00 Fair CLR 87.8 73.4 62% 96 29.93 0.0
01 13:15 S 7 10.00 Fair CLR 86 73.4 66% 93 29.94 0.0
01 12:55 Calm 10.00 Fair CLR 86 73.4 66% 93 29.95 0.0
01 12:35 Calm 10.00 Fair CLR 86 71.6 62% 92 29.95 0.0
01 12:15 Calm 10.00 Fair CLR 84.2 71.6 66% 90 29.95 0.0
01 11:55 Vrbl 5 10.00 Fair CLR 82.4 73.4 74% 88 29.95 0.0
01 11:35 Calm 10.00 Fair CLR 80.6 73.4 79% 85 29.95 0.0
01 11:15 NE 5 10.00 Fair CLR 80.6 71.6 74% 85 29.94 0.0
01 10:55 Calm 10.00 Fair CLR 78.8 71.6 79% 82 29.94 0.0
01 10:35 NW 5 10.00 Fair CLR 78.8 71.6 79% 82 29.94 0.0
01 10:15 Calm 10.00 Fair CLR 78.8 71.6 79% 82 29.94 0.0
01 09:55 Calm 10.00 Fair CLR 78.8 71.6 79% 82 29.94 0.0
01 09:35 SW 3 10.00 Fair CLR 78.8 71.6 79% 82 29.94 0.0
01 09:15 SW 3 10.00 A Few Clouds FEW110 77 69.8 79% 79 29.94 0.0
01 08:55 S 5 10.00 Fair CLR 75.2 69.8 83% 75 29.95 0.0
01 08:35 S 3 10.00 A Few Clouds FEW110 75.2 69.8 83% 75 29.95 0.0
01 08:15 Calm 10.00 Partly Cloudy SCT110 73.4 69.8 89% 29.95 0.0
01 07:55 S 6 10.00 A Few Clouds FEW110 71.6 69.8 94% 29.95 0.0
01 07:35 S 3 10.00 Fair CLR 71.6 69.8 94% 29.94 0.0
01 07:15 S 6 10.00 Fair CLR 69.8 69.8 100% 29.93 0.0
01 06:55 SE 7 10.00 Fair CLR 71.6 69.8 94% 29.92 0.0
01 06:35 SE 7 10.00 NULL NULL 71.6 69.8 94% 29.92 0.0
01 06:15 SE 5 9.00 Fair CLR 71.6 69.8 94% 29.93 0.0
01 05:55 S 6 10.00 Fair CLR 73.4 69.8 89% 29.92 0.0
01 05:35 SE 8 10.00 NULL NULL 71.6 71.6 100% 29.93 0.0
01 05:15 SE 7 10.00 NULL NULL 71.6 71.6 100% 29.93 0.0
01 04:55 SE 6 10.00 Mostly Cloudy BKN110 71.6 71.6 100% 29.94 0.0
01 04:35 SE 5 10.00 NULL NULL 73.4 73.4 100% 29.94 0.0
01 04:15 SE 6 10.00 NULL NULL 71.6 71.6 100% 29.94 0.0
01 03:55 Calm 10.00 NULL NULL 71.6 71.6 100% 29.95 0.0
01 03:35 Calm 10.00 NULL NULL 71.6 71.6 100% 29.94 0.0
01 03:15 E 6 10.00 NULL NULL 71.6 71.6 100% 29.94 0.0
01 02:55 E 5 9.00 NULL NULL 71.6 71.6 100% 29.94 0.0
01 02:35 E 3 9.00 NULL NULL 71.6 71.6 100% 29.94 0.0
01 02:15 E 5 10.00 Thunderstorm in Vicinity NULL 71.6 71.6 100% 29.95 0.0
01 01:55 NE 5 10.00 NULL NULL 71.6 71.6 100% 29.95 0.0
01 01:35 NE 6 9.00 NULL NULL 71.6 71.6 100% 29.96 0.0
01 01:15 NE 5 10.00 NULL NULL 71.6 71.6 100% 29.96 0.0
01 00:55 NE 3 10.00 NULL NULL 73.4 73.4 100% 29.96 0.0
01 00:35 E 5 10.00 NULL NULL 73.4 73.4 100% 29.96 0.0
01 00:15 E 5 10.00 NULL NULL 73.4 73.4 100% 29.96 0.0
31 23:55 E 3 10.00 NULL NULL 73.4 73.4 100% 29.96 0.0
31 23:35 NE 3 9.00 Partly Cloudy SCT120 73.4 73.4 100% 29.97 0.0
31 23:15 Calm 6.00 Fog/Mist NULL 75.2 75.2 100% 73 29.97 0.0
31 22:55 NE 3 10.00 NULL NULL 75.2 75.2 100% 73 29.97 0.0
31 22:35 Calm 10.00 Mostly Cloudy BKN110 75.2 75.2 100% 73 29.96 0.0
31 22:15 E 3 10.00 NULL NULL 77 75.2 94% 78 29.96 0.0
31 21:55 E 3 10.00 NULL NULL 77 75.2 94% 78 29.96 0.0
31 21:35 E 3 10.00 NULL NULL 77 75.2 94% 78 29.95 0.0
31 21:15 E 3 8.00 NULL NULL 77 75.2 94% 78 29.94 0.0
31 20:55 NE 3 10.00 NULL NULL 77 75.2 94% 78 29.94 0.0
31 20:35 Calm 0.50 Light Rain Fog NULL 78.8 75.2 89% 82 29.93 0.0
31 20:15 Calm 10.00 Fair CLR 80.6 75.2 84% 86 29.93 0.0
31 19:55 Calm 9.00 Light Rain CLR 80.6 75.2 84% 86 29.93 0.0
31 19:35 E 3 10.00 Fair CLR 84.2 75.2 74% 92 29.93 0.0
31 19:15 SE 5 10.00 Fair CLR 86 73.4 66% 93 29.94 0.0
31 18:35 Calm 10.00 Fair CLR 87.8 69.8 55% 93 29.94 0.0
31 18:15 Calm 10.00 Fair CLR 89.6 71.6 55% 96 29.94 0.0
31 17:55 Calm 10.00 Fair CLR 87.8 69.8 55% 93 29.94 0.0
31 17:35 SW 5 10.00 Fair CLR 87.8 71.6 59% 94 29.95 0.0
31 17:15 SW 6 10.00 Fair CLR 87.8 71.6 59% 94 29.95 0.0
31 16:55 S 6 10.00 Fair CLR 87.8 71.6 59% 94 29.96 0.0
31 16:35 SW 5 10.00 Fair CLR 87.8 69.8 55% 93 29.95 0.0
31 16:15 SW 5 10.00 Fair CLR 89.6 69.8 52% 95 29.96 0.0
31 15:55 Vrbl 5 10.00 Fair CLR 87.8 71.6 59% 94 29.96 0.0
31 15:35 Vrbl 3 10.00 Fair CLR 87.8 73.4 62% 96 29.96 0.0
31 15:15 SW 6 10.00 Fair CLR 87.8 71.6 59% 94 29.97 0.0
31 14:55 SW 3 10.00 Fair CLR 87.8 73.4 62% 96 29.97 0.0
31 14:35 Calm 10.00 Fair CLR 86 73.4 66% 93 29.98 0.0
31 14:15 Calm 10.00 Fair CLR 86 73.4 66% 93 29.98 0.0
31 13:55 Calm 10.00 Fair CLR 86 75.2 70% 95 29.98 0.0
31 13:35 Calm 10.00 Fair CLR 84.2 73.4 70% 91 29.98 0.0
31 13:15 Calm 10.00 Fair CLR 84.2 71.6 66% 90 29.99 0.0
31 12:55 Vrbl 5 10.00 Fair CLR 84.2 73.4 70% 91 29.99 0.0
31 12:35 NW 5 10.00 Fair CLR 82.4 73.4 74% 88 29.99 0.0
31 12:15 Calm 10.00 Fair CLR 82.4 73.4 74% 88 29.98 0.0
31 11:55 Calm 10.00 Fair CLR 80.6 73.4 79% 85 29.98 0.0
31 11:35 Calm 10.00 Fair CLR 78.8 73.4 84% 82 29.98 0.0
31 11:15 Vrbl 5 10.00 Fair CLR 78.8 73.4 84% 82 29.97 0.0
31 10:55 N 6 10.00 Fair CLR 77 73.4 89% 78 29.97 0.0
31 10:35 N 7 10.00 Fair CLR 77 73.4 89% 78 29.95 0.0
31 10:15 N 7 10.00 Fair CLR 75.2 71.6 89% 75 29.96 0.0
31 09:55 N 6 10.00 Fair CLR 73.4 71.6 94% 29.96 0.0
31 09:35 NW 6 10.00 Fair CLR 71.6 71.6 100% 29.95 0.0
31 09:15 N 5 10.00 Fair CLR 71.6 69.8 94% 29.95 0.0
31 08:55 Calm 10.00 Fair CLR 69.8 69.8 100% 29.94 0.0
31 08:35 NW 6 10.00 Fair CLR 69.8 69.8 100% 29.94 0.0
31 08:15 N 8 G 15 10.00 Fair CLR 69.8 69.8 100% 29.91 0.0
31 07:55 NW 8 G 15 10.00 A Few Clouds FEW095 69.8 69.8 100% 29.91 0.0 0.01
31 07:35 N 7 10.00 Mostly Cloudy FEW036 SCT050 BKN100 69.8 69.8 100% 29.92 0.0
31 07:15 NW 8 9.00 Light Rain NULL 71.6 69.8 94% 29.95 0.0
31 06:55 W 10 9.00 Light Rain FEW039 SCT050 BKN075 71.6 71.6 100% 29.98 0.0
31 06:35 W 14 10.00 Light Rain NULL 73.4 71.6 94% 29.96 0.0
31 06:15 W 12 10.00 Partly Cloudy FEW075 SCT110 73.4 73.4 100% 29.93 0.0
31 05:55 W 9 7.00 NULL NULL 73.4 73.4 100% 29.91 0.0
31 05:35 W 7 7.00 NULL NULL 73.4 73.4 100% 29.89 0.0
31 05:15 W 7 7.00 NULL NULL 73.4 73.4 100% 29.89 0.0
31 04:55 SW 7 8.00 NULL NULL 73.4 73.4 100% 29.88 0.0
31 04:35 W 8 7.00 NULL NULL 73.4 73.4 100% 29.88 0.0
31 04:15 SW 7 6.00 Fog/Mist NULL 71.6 71.6 100% 29.88 0.0
31 03:55 SW 5 8.00 NULL NULL 71.6 71.6 100% 29.86 0.0
31 03:35 W 6 7.00 NULL NULL 71.6 71.6 100% 29.86 0.0
31 03:15 SW 5 10.00 NULL NULL 71.6 71.6 100% 29.86 0.0
31 02:55 W 6 5.00 Fog/Mist NULL 71.6 71.6 100% 29.85 0.0
31 02:35 SW 5 7.00 NULL NULL 71.6 71.6 100% 29.85 0.0
31 02:15 S 3 9.00 NULL NULL 71.6 71.6 100% 29.85 0.0
31 01:55 S 5 9.00 NULL NULL 71.6 71.6 100% 29.86 0.0
31 01:35 S 5 10.00 NULL NULL 71.6 71.6 100% 29.87 0.0
31 01:15 S 3 10.00 Fair CLR 71.6 71.6 100% 29.86 0.0
31 00:55 S 7 4.00 Fog/Mist NULL 71.6 71.6 100% 29.86 0.0
31 00:35 S 7 9.00 NULL NULL 71.6 71.6 100% 29.85 0.0
31 00:15 S 3 9.00 NULL NULL 71.6 71.6 100% 29.85 0.0
30 23:55 SE 6 10.00 NULL NULL 73.4 73.4 100% 29.85 0.0
Date Time (cdt) Wind (mph) Vis. (mi.) Weather Sky Cond. Air Dwpt Max. Min. Relative Humidity Wind Chill (°F) Heat Index (°F) altimeter (in) sea level (mb) 1 hr 3 hr 6 hr
6 hour
Temperature (ºF) Pressure Precipitation (in)